Racecast

Cadence Lowe

Richfield (MN) · 9 · UT D3A · Compare head to head

Athlete rating
Races 26
Seasons 2 2025 — 2026
Speed rating — all races

Track & Field

TF speed rating

2026 TF

Richfield (MN) · Grade 9

Date Meet Event Result Place Rating Difficulty PR/SR Flags
2026-05-07 District 4 1A/2A Championships 200m 32.27 30th · 2nd on team +0.001
2026-05-07 District 4 1A/2A Championships 400m 1:10.59 19th · 2nd on team +0.001 SR
2026-04-25 Monte Andrus Invitational 100m 14.43 13th · 2nd on team +0.002 ★PR SR
2026-04-25 Monte Andrus Invitational 200m 30.53 13th · 2nd on team +0.002 ★PR SR
2026-04-25 Monte Andrus Invitational 400m 1:12.33 7th · 1st on team +0.002
2026-04-17 Buhl Rotary Invitational lj ND +0.001
2026-04-17 Buhl Rotary Invitational 400m 1:14.8 11th · 2nd on team +0.001
2026-04-17 Buhl Rotary Invitational 100m 14.98 34th · 4th on team +0.001
2026-04-08 Morey/Cook Invitational (Full) lj 11' 2" +0.012
2026-04-08 Morey/Cook Invitational (Full) 100m 14.95 32nd · 2nd on team +0.012
2026-04-08 Morey/Cook Invitational (Full) 200m 33.26 25th · 3rd on team +0.012 SR
2026-03-18 Valley Invite lj 12' 1" +0.002
2026-03-18 Valley Invite 100m 14.94 31st · 2nd on team +0.002 SR
2026-03-18 Valley Invite 400m 1:12.07 15th · 2nd on team +0.002 SR

2025 TF

Richfield (MN) · Grade 8

Date Meet Event Result Place Rating Difficulty PR/SR Flags
2025-05-24 YMCA Middle School Championship lj 12' 2.5" -0.026
2025-05-24 YMCA Middle School Championship 400m 1:10.31 17th · 1st on team -0.026 ★PR SR
2025-05-06 Sawtooth MS Medal Meet lj 12' 0" +0.012
2025-05-06 Sawtooth MS Medal Meet 200m 31.42 5th · 1st on team +0.012 PR SR
2025-05-06 Sawtooth MS Medal Meet 400m 1:11.47 5th · 1st on team +0.012 PR SR
2025-05-06 Sawtooth MS Medal Meet 100m 15.04 9th · 1st on team +0.012
2025-04-23 Sawtooth MS Meet lj 13' 3" +0.012
2025-04-23 Sawtooth MS Meet 100m 14.45 8th · 1st on team +0.012 PR SR
2025-04-23 Sawtooth MS Meet 200m 31.59 9th · 1st on team +0.012
2025-04-15 Sawtooth MS Meet lj 11' 8" +0.007
2025-04-15 Sawtooth MS Meet 200m 31.44 6th · 1st on team +0.007 PR SR
2025-04-15 Sawtooth MS Meet 100m 14.54 7th · 1st on team +0.007 PR SR